createdAt,value
2023-02-19T00:02:12.133Z,18.83
2023-02-19T00:04:39.031Z,19.27
2023-02-19T00:07:05.896Z,11.83
2023-02-19T00:09:32.794Z,13.57
2023-02-19T00:11:59.650Z,11.30
2023-02-19T00:14:26.461Z,9.57
2023-02-19T00:16:53.336Z,10.90
2023-02-19T00:19:21.556Z,7.77
2023-02-19T00:21:51.826Z,5.20
2023-02-19T00:24:18.823Z,6.03
2023-02-19T00:26:46.806Z,9.43
2023-02-19T00:29:20.405Z,8.50
2023-02-19T00:31:48.025Z,9.53
2023-02-19T00:34:15.097Z,11.20
2023-02-19T00:36:42.572Z,11.10
2023-02-19T00:39:15.660Z,10.37
2023-02-19T00:41:43.472Z,10.40
2023-02-19T00:44:11.638Z,10.27
2023-02-19T00:46:41.527Z,10.43
2023-02-19T00:49:16.404Z,9.47
2023-02-19T00:51:43.519Z,8.80
2023-02-19T00:54:12.030Z,10.03
2023-02-19T00:56:38.943Z,10.57
2023-02-19T00:59:05.915Z,9.03
2023-02-19T01:01:32.923Z,9.60
2023-02-19T01:03:59.868Z,10.33
2023-02-19T01:06:26.896Z,8.73
2023-02-19T01:08:53.733Z,8.67
2023-02-19T01:11:20.699Z,7.50
2023-02-19T01:13:48.103Z,6.83
2023-02-19T01:16:24.823Z,7.57
2023-02-19T01:18:52.094Z,11.10
2023-02-19T01:21:25.349Z,9.13
2023-02-19T01:23:53.398Z,6.67
2023-02-19T01:26:26.644Z,5.90
2023-02-19T01:28:53.648Z,8.87
2023-02-19T01:31:24.925Z,12.37
2023-02-19T01:33:55.474Z,12.63
2023-02-19T01:36:22.540Z,16.23
2023-02-19T01:38:49.896Z,17.90
2023-02-19T01:41:21.170Z,18.43
2023-02-19T01:44:03.434Z,14.63
2023-02-19T01:46:43.059Z,8.83
2023-02-19T01:49:21.434Z,9.13
2023-02-19T01:51:54.440Z,11.13
2023-02-19T01:54:24.975Z,7.37
2023-02-19T01:56:53.861Z,9.83
2023-02-19T01:59:20.757Z,8.37
2023-02-19T02:01:48.496Z,7.83
2023-02-19T02:04:16.152Z,7.40
2023-02-19T02:06:56.088Z,8.60
2023-02-19T02:09:46.644Z,5.77
2023-02-19T02:12:14.269Z,7.60
2023-02-19T02:14:47.935Z,5.97
2023-02-19T02:17:26.642Z,6.17
2023-02-19T02:20:32.308Z,11.00
2023-02-19T02:23:27.047Z,6.47
2023-02-19T02:26:15.191Z,4.60
2023-02-19T02:29:00.684Z,6.63
2023-02-19T02:31:34.199Z,5.40
2023-02-19T02:34:14.724Z,6.13
2023-02-19T02:36:45.006Z,6.27
2023-02-19T02:39:17.492Z,7.10
2023-02-19T02:41:49.264Z,5.37
2023-02-19T02:44:16.422Z,6.27
2023-02-19T02:46:45.803Z,4.53
2023-02-19T02:49:22.001Z,6.90
2023-02-19T02:51:53.961Z,5.50
2023-02-19T02:54:51.086Z,4.40
2023-02-19T02:57:20.893Z,9.57
2023-02-19T02:59:57.020Z,6.90
2023-02-19T03:02:28.937Z,5.93
2023-02-19T03:05:35.210Z,7.50
2023-02-19T03:08:12.578Z,4.50
2023-02-19T03:10:51.003Z,4.00
2023-02-19T03:13:52.723Z,5.43
2023-02-19T03:16:49.977Z,6.13
2023-02-19T03:19:19.889Z,7.80
2023-02-19T03:21:57.166Z,5.07
2023-02-19T03:24:49.853Z,4.70
2023-02-19T03:27:21.020Z,4.63
2023-02-19T03:29:54.908Z,4.90
2023-02-19T03:32:31.429Z,6.13
2023-02-19T03:35:26.771Z,6.43
2023-02-19T03:38:18.808Z,7.37
2023-02-19T03:40:56.241Z,5.57
2023-02-19T03:43:42.510Z,8.33
2023-02-19T03:46:15.656Z,7.67
2023-02-19T03:48:51.359Z,8.50
2023-02-19T03:51:30.703Z,6.10
2023-02-19T03:54:16.923Z,7.17
2023-02-19T03:56:52.426Z,6.67
2023-02-19T03:59:34.945Z,8.73
2023-02-19T04:02:16.802Z,7.93
2023-02-19T04:04:49.084Z,6.37
2023-02-19T04:07:16.299Z,6.73
2023-02-19T04:09:46.903Z,7.67
2023-02-19T04:12:19.379Z,7.37
2023-02-19T04:14:53.732Z,6.67
2023-02-19T04:17:26.623Z,7.30
2023-02-19T04:19:56.382Z,6.17
2023-02-19T04:22:23.986Z,7.03
2023-02-19T04:24:53.571Z,8.73
2023-02-19T04:27:20.527Z,9.20
2023-02-19T04:29:47.490Z,8.70
2023-02-19T04:32:14.681Z,9.37
2023-02-19T04:34:41.561Z,11.07
2023-02-19T04:37:08.598Z,8.53
2023-02-19T04:39:35.559Z,8.87
2023-02-19T04:42:02.487Z,8.87
2023-02-19T04:44:29.386Z,8.50
2023-02-19T04:46:56.255Z,7.60
2023-02-19T04:49:23.156Z,8.90
2023-02-19T04:51:50.089Z,7.67
2023-02-19T04:54:16.969Z,6.93
2023-02-19T04:56:43.917Z,7.07
2023-02-19T04:59:10.798Z,6.60
2023-02-19T05:01:37.655Z,6.30
2023-02-19T05:04:05.355Z,7.40
2023-02-19T05:06:32.340Z,7.77
2023-02-19T05:08:59.235Z,9.63
2023-02-19T05:11:26.630Z,8.00
2023-02-19T05:13:55.557Z,9.23
2023-02-19T05:16:22.445Z,10.60
2023-02-19T05:18:49.468Z,9.97
2023-02-19T05:21:16.632Z,9.07
2023-02-19T05:23:43.880Z,9.30
2023-02-19T05:26:18.015Z,7.60
2023-02-19T05:28:52.856Z,10.20
2023-02-19T05:31:20.886Z,9.80
2023-02-19T05:33:51.140Z,12.77
2023-02-19T05:36:20.338Z,11.70
2023-02-19T05:38:48.316Z,9.07
2023-02-19T05:41:16.958Z,11.50
2023-02-19T05:43:45.703Z,13.80
2023-02-19T05:46:14.724Z,13.03
2023-02-19T05:48:41.687Z,11.13
2023-02-19T05:51:20.953Z,15.03
2023-02-19T05:53:48.371Z,14.97
2023-02-19T05:56:47.704Z,12.90
2023-02-19T05:59:20.259Z,15.27
2023-02-19T06:01:48.836Z,11.60
2023-02-19T06:04:17.262Z,10.93
2023-02-19T06:06:44.185Z,8.73
2023-02-19T06:09:11.824Z,6.33
2023-02-19T06:11:39.285Z,7.53
2023-02-19T06:14:07.032Z,9.87
2023-02-19T06:16:34.492Z,14.17
2023-02-19T06:19:05.024Z,13.43
2023-02-19T06:21:32.010Z,17.17
2023-02-19T06:23:59.077Z,10.63
2023-02-19T06:26:26.044Z,15.33
2023-02-19T06:28:54.180Z,19.00
2023-02-19T06:31:22.756Z,21.43
2023-02-19T06:33:50.841Z,26.47
2023-02-19T06:36:20.502Z,17.80
2023-02-19T06:38:47.742Z,21.57
2023-02-19T06:41:15.340Z,16.23
2023-02-19T06:43:43.144Z,20.40
2023-02-19T06:46:11.921Z,25.40
2023-02-19T06:48:48.445Z,26.53
2023-02-19T06:51:22.762Z,24.23
2023-02-19T06:53:50.512Z,22.30
2023-02-19T06:56:35.124Z,19.13
2023-02-19T06:59:04.334Z,14.13
2023-02-19T07:01:33.125Z,16.63
2023-02-19T07:04:00.245Z,13.10
2023-02-19T07:06:27.985Z,9.10
2023-02-19T07:08:56.293Z,9.20
2023-02-19T07:11:23.797Z,8.57
2023-02-19T07:13:58.129Z,8.47
2023-02-19T07:16:26.203Z,9.10
2023-02-19T07:18:55.725Z,12.13
2023-02-19T07:21:22.680Z,9.80
2023-02-19T07:23:49.738Z,10.57
2023-02-19T07:26:19.057Z,12.27
2023-02-19T07:28:48.012Z,10.40
2023-02-19T07:31:16.269Z,9.57
2023-02-19T07:33:46.961Z,6.77
2023-02-19T07:36:16.852Z,26.57
2023-02-19T07:38:44.519Z,15.77
2023-02-19T07:41:12.057Z,14.93
2023-02-19T07:43:40.235Z,7.67
2023-02-19T07:46:12.848Z,8.00
2023-02-19T07:48:41.190Z,14.77
2023-02-19T07:51:12.394Z,10.60
2023-02-19T07:53:39.485Z,7.03
2023-02-19T07:56:07.968Z,5.17
2023-02-19T07:58:35.109Z,7.13
2023-02-19T08:01:10.471Z,9.73
2023-02-19T08:03:38.337Z,11.17
2023-02-19T08:06:05.984Z,6.47
2023-02-19T08:08:32.825Z,8.90
2023-02-19T08:11:23.121Z,13.10
2023-02-19T08:13:51.164Z,5.47
2023-02-19T08:16:29.790Z,7.60
2023-02-19T08:19:00.484Z,5.23
2023-02-19T08:21:27.481Z,6.43
2023-02-19T08:23:54.442Z,7.93
2023-02-19T08:26:21.646Z,6.57
2023-02-19T08:28:49.143Z,10.90
2023-02-19T08:31:16.252Z,6.10
2023-02-19T08:33:43.284Z,4.30
2023-02-19T08:36:11.296Z,6.07
2023-02-19T08:38:38.561Z,6.03
2023-02-19T08:41:10.904Z,13.03
2023-02-19T08:43:39.414Z,4.80
2023-02-19T08:46:07.739Z,4.03
2023-02-19T08:48:34.862Z,2.57
2023-02-19T08:51:04.471Z,3.70
2023-02-19T08:53:32.967Z,8.47
2023-02-19T08:56:08.235Z,8.43
2023-02-19T08:58:36.186Z,3.07
2023-02-19T09:01:07.581Z,4.43
2023-02-19T09:03:34.643Z,4.60
2023-02-19T09:06:01.617Z,3.33
2023-02-19T09:08:28.526Z,3.97
2023-02-19T09:11:00.289Z,4.80
2023-02-19T09:13:27.588Z,9.57
2023-02-19T09:15:54.874Z,2.47
2023-02-19T09:18:21.851Z,4.13
2023-02-19T09:20:48.808Z,5.80
2023-02-19T09:23:15.678Z,3.63
2023-02-19T09:25:42.763Z,2.67
2023-02-19T09:28:09.820Z,4.60
2023-02-19T09:37:20.406Z,2.03
2023-02-19T09:39:47.324Z,1.80
2023-02-19T09:42:22.229Z,2.63
2023-02-19T09:44:52.914Z,1.40
2023-02-19T09:47:23.457Z,3.47
2023-02-19T09:49:57.257Z,1.97
2023-02-19T09:52:34.338Z,3.10
2023-02-19T09:55:15.125Z,1.97
2023-02-19T09:57:43.646Z,1.53
2023-02-19T10:00:19.464Z,4.27
2023-02-19T10:02:46.521Z,1.40
2023-02-19T10:05:15.570Z,6.50
2023-02-19T10:07:49.493Z,1.80
2023-02-19T10:10:16.468Z,1.50
2023-02-19T10:12:47.997Z,1.47
2023-02-19T10:15:40.140Z,5.90
2023-02-19T10:18:10.072Z,1.20
2023-02-19T10:20:38.293Z,1.30
2023-02-19T10:23:08.069Z,2.57
2023-02-19T10:25:43.122Z,4.90
2023-02-19T10:28:19.009Z,5.17
2023-02-19T10:30:53.062Z,3.53
2023-02-19T10:33:21.084Z,4.30
2023-02-19T10:35:51.163Z,6.50
2023-02-19T10:38:20.793Z,3.27
2023-02-19T10:40:48.569Z,3.03
2023-02-19T10:43:31.428Z,4.70
2023-02-19T10:45:59.818Z,11.30
2023-02-19T10:48:37.671Z,1.93
2023-02-19T10:51:11.213Z,0.87
2023-02-19T10:53:42.386Z,1.17
2023-02-19T10:56:15.377Z,1.43
2023-02-19T10:58:44.998Z,0.73
2023-02-19T11:01:22.369Z,3.20
2023-02-19T11:03:51.614Z,0.70
2023-02-19T11:06:28.046Z,1.73
2023-02-19T11:09:01.867Z,1.20
2023-02-19T11:11:43.189Z,2.83
2023-02-19T11:14:25.399Z,4.47
2023-02-19T11:17:12.982Z,1.63
2023-02-19T11:19:48.753Z,1.30
2023-02-19T11:22:34.830Z,1.80
2023-02-19T11:25:15.272Z,2.37
2023-02-19T11:28:11.160Z,2.30
2023-02-19T12:41:03.716Z,1.43
2023-02-19T12:43:34.017Z,2.00
2023-02-19T12:46:14.188Z,1.30
2023-02-19T12:48:48.685Z,1.30
2023-02-19T12:52:00.141Z,2.07
2023-02-19T12:54:40.887Z,1.90
2023-02-19T12:57:16.069Z,1.80
2023-02-19T12:59:56.184Z,1.10
2023-02-19T13:02:30.293Z,3.23
2023-02-19T13:05:08.318Z,2.27
2023-02-19T13:07:54.681Z,1.63
2023-02-19T13:10:41.264Z,1.10
2023-02-19T13:13:17.548Z,1.80
2023-02-19T13:15:48.618Z,4.43
2023-02-19T13:18:24.148Z,2.30
2023-02-19T13:20:51.917Z,1.70
2023-02-19T13:23:37.414Z,1.50
2023-02-19T13:26:16.423Z,2.33
2023-02-19T13:29:21.669Z,3.50
2023-02-19T13:32:18.961Z,1.97
2023-02-19T13:35:00.959Z,1.93
2023-02-19T13:37:33.124Z,2.23
2023-02-19T13:40:06.306Z,1.40
2023-02-19T13:42:36.062Z,3.13
2023-02-19T13:45:05.380Z,1.43
2023-02-19T13:48:23.141Z,2.97
2023-02-19T13:51:11.496Z,1.40
2023-02-19T13:54:08.073Z,2.40
2023-02-19T13:56:37.087Z,2.10
2023-02-19T13:59:23.872Z,3.77
2023-02-19T14:01:53.387Z,2.00
2023-02-19T14:04:47.583Z,2.97
2023-02-19T14:07:14.472Z,2.30
2023-02-19T14:09:53.948Z,2.00
2023-02-19T14:12:22.730Z,1.30
2023-02-19T14:14:54.533Z,1.43
2023-02-19T14:17:36.228Z,1.40
2023-02-19T14:20:09.140Z,3.50
2023-02-19T14:22:57.066Z,1.80
2023-02-19T14:25:27.253Z,1.30
2023-02-19T14:28:17.019Z,1.53
2023-02-19T14:31:01.051Z,2.97
2023-02-19T14:33:31.224Z,1.40
2023-02-19T14:36:16.913Z,1.37
2023-02-19T14:38:56.426Z,4.17
2023-02-19T14:41:24.851Z,4.13
2023-02-19T14:43:53.992Z,2.40
2023-02-19T14:46:31.203Z,1.57
2023-02-19T14:49:14.848Z,3.33
2023-02-19T14:51:51.366Z,2.17
2023-02-19T14:54:26.456Z,3.67
2023-02-19T14:56:54.534Z,3.97
2023-02-19T14:59:27.798Z,2.70
2023-02-19T15:02:16.425Z,2.83
2023-02-19T15:04:53.583Z,2.63
2023-02-19T15:07:35.617Z,4.30
2023-02-19T15:10:05.856Z,5.73
2023-02-19T15:12:52.559Z,5.17
2023-02-19T15:15:24.397Z,2.87
2023-02-19T15:17:53.450Z,3.47
2023-02-19T15:20:25.581Z,4.10
2023-02-19T15:22:56.284Z,3.87
2023-02-19T15:25:26.879Z,4.87
2023-02-19T15:27:53.776Z,5.47
2023-02-19T15:30:29.523Z,6.70
2023-02-19T15:32:59.167Z,3.97
2023-02-19T15:35:30.522Z,6.37
2023-02-19T15:37:59.241Z,4.80
2023-02-19T15:40:32.522Z,12.20
2023-02-19T15:43:00.650Z,4.73
2023-02-19T15:45:41.798Z,4.20
2023-02-19T15:48:26.112Z,2.10
2023-02-19T15:51:08.259Z,3.43
2023-02-19T15:53:42.482Z,6.67
2023-02-19T15:56:21.907Z,4.43
2023-02-19T15:58:57.697Z,7.73
2023-02-19T16:01:27.441Z,6.57
2023-02-19T16:03:55.536Z,6.40
2023-02-19T16:06:24.373Z,7.80
2023-02-19T16:09:03.965Z,10.23
2023-02-19T16:11:39.875Z,9.17
2023-02-19T16:14:29.432Z,7.30
2023-02-19T16:17:11.652Z,8.47
2023-02-19T16:19:53.559Z,14.67
2023-02-19T16:22:30.398Z,6.30
2023-02-19T16:25:01.709Z,8.03
2023-02-19T16:27:41.755Z,11.23
2023-02-19T16:30:17.846Z,9.17
2023-02-19T16:32:46.904Z,17.80
2023-02-19T16:35:42.468Z,22.73
2023-02-19T16:38:14.497Z,14.93
2023-02-19T16:40:54.301Z,15.70
2023-02-19T16:43:31.330Z,12.67
2023-02-19T16:45:59.660Z,10.10
2023-02-19T16:48:26.755Z,11.87
2023-02-19T16:50:53.842Z,19.20
2023-02-19T16:53:24.867Z,17.90
2023-02-19T16:55:52.438Z,15.23
2023-02-19T17:25:08.879Z,19.27
2023-02-19T17:27:35.765Z,11.80
2023-02-19T17:30:03.340Z,15.87
2023-02-19T17:32:31.897Z,24.97
2023-02-19T17:34:59.547Z,17.00
2023-02-19T17:37:26.459Z,15.07
2023-02-19T17:39:53.325Z,17.00
2023-02-19T17:42:20.328Z,19.87
2023-02-19T17:44:47.491Z,19.70
2023-02-19T17:47:14.388Z,29.00
2023-02-19T17:49:41.311Z,19.67
2023-02-19T17:52:08.266Z,33.23
2023-02-19T17:54:35.169Z,26.67
2023-02-19T17:57:02.085Z,31.13
2023-02-19T17:59:29.009Z,31.80
2023-02-19T18:01:55.982Z,35.67
2023-02-19T18:04:23.046Z,25.97
2023-02-19T18:06:49.978Z,27.53
2023-02-19T18:09:19.427Z,23.07
2023-02-19T18:11:46.479Z,25.23
2023-02-19T18:14:13.489Z,20.57
2023-02-19T18:16:50.273Z,25.33
2023-02-19T18:19:17.767Z,22.20
2023-02-19T18:21:44.699Z,13.83
2023-02-19T18:24:11.584Z,11.40
2023-02-19T18:26:38.528Z,11.00
2023-02-19T18:29:05.815Z,9.03
2023-02-19T18:31:35.233Z,10.30
2023-02-19T18:34:02.161Z,15.80
2023-02-19T18:36:29.175Z,13.67
2023-02-19T18:38:56.023Z,11.17
2023-02-19T18:41:23.031Z,13.30
2023-02-19T18:43:50.674Z,9.33
2023-02-19T18:46:21.350Z,9.47
2023-02-19T18:48:48.333Z,11.07
2023-02-19T18:51:15.328Z,9.50
2023-02-19T18:53:43.085Z,12.17
2023-02-19T18:56:09.974Z,42.27
2023-02-19T18:58:36.876Z,28.33
2023-02-19T19:01:03.895Z,10.40
2023-02-19T19:03:31.908Z,12.80
2023-02-19T19:05:58.979Z,21.90
2023-02-19T19:08:25.844Z,19.93
2023-02-19T19:10:52.757Z,15.77
2023-02-19T19:13:19.585Z,21.93
2023-02-19T19:15:51.097Z,20.17
2023-02-19T19:18:18.625Z,12.53
2023-02-19T19:20:45.612Z,33.73
2023-02-19T19:23:13.310Z,14.87
2023-02-19T19:25:40.217Z,10.50
2023-02-19T19:28:07.206Z,4.20
2023-02-19T19:30:34.166Z,6.73
2023-02-19T19:33:03.434Z,7.63
2023-02-19T19:35:30.365Z,7.67
2023-02-19T19:37:57.302Z,9.33
2023-02-19T19:40:24.209Z,12.17
2023-02-19T19:42:52.448Z,14.27
2023-02-19T19:45:19.731Z,5.27
2023-02-19T19:47:46.957Z,5.17
2023-02-19T19:50:14.479Z,5.43
2023-02-19T19:52:41.538Z,6.70
2023-02-19T19:55:08.676Z,5.37
2023-02-19T19:57:35.607Z,7.23
2023-02-19T20:00:04.557Z,4.60
2023-02-19T20:02:39.836Z,6.93
2023-02-19T20:05:07.159Z,5.00
2023-02-19T20:07:34.135Z,6.20
2023-02-19T20:10:05.502Z,7.23
2023-02-19T20:12:32.749Z,7.23
2023-02-19T20:14:59.727Z,6.87
2023-02-19T20:17:28.824Z,6.67
2023-02-19T20:19:55.722Z,7.57
2023-02-19T20:22:22.564Z,6.13
2023-02-19T20:24:51.738Z,5.47
2023-02-19T20:27:19.657Z,5.83
2023-02-19T20:29:46.972Z,4.60
2023-02-19T20:32:15.435Z,6.03
2023-02-19T20:34:42.331Z,4.87
2023-02-19T20:37:09.186Z,6.20
2023-02-19T20:39:36.141Z,5.93
2023-02-19T20:42:03.783Z,6.90
2023-02-19T20:44:30.953Z,5.70
2023-02-19T20:46:59.289Z,6.33
2023-02-19T20:49:31.038Z,5.67
2023-02-19T20:52:01.338Z,5.30
2023-02-19T20:54:30.604Z,6.63
2023-02-19T20:57:00.493Z,8.77
2023-02-19T20:59:31.254Z,6.17
2023-02-19T21:01:59.086Z,6.30
2023-02-19T21:04:26.317Z,7.30
2023-02-19T21:06:53.139Z,6.60
2023-02-19T21:09:21.320Z,10.23
2023-02-19T21:11:48.662Z,11.17
2023-02-19T21:14:16.233Z,7.13
2023-02-19T21:16:43.141Z,8.60
2023-02-19T21:19:10.009Z,7.10
2023-02-19T21:21:39.352Z,6.07
2023-02-19T21:24:07.189Z,6.67
2023-02-19T21:26:36.606Z,6.57
2023-02-19T21:29:05.192Z,7.23
2023-02-19T21:31:43.367Z,7.73
2023-02-19T21:34:13.563Z,6.60
2023-02-19T21:36:40.745Z,6.33
2023-02-19T21:39:09.383Z,5.47
2023-02-19T21:41:36.296Z,6.83
2023-02-19T21:44:03.776Z,8.77
2023-02-19T21:46:32.916Z,6.60
2023-02-19T21:49:00.476Z,6.50
2023-02-19T21:51:35.689Z,6.63
2023-02-19T21:54:03.448Z,7.70
2023-02-19T21:56:35.085Z,6.57
2023-02-19T21:59:03.079Z,7.80
2023-02-19T22:01:33.249Z,7.87
